nws-alerts: Checking more than four warning/county codes can delay the loading of your pages. You should use a cron job to get the data.
EllijayWeather Station Historical Data
Daily Summary for November 1, 2018 Units:  English    Metric   Both
Daily Weekly Monthly Yearly Custom
  High: Low: Average:
Temperature: 66.9 °F 60.4 °F 63.6 °F
Dew Point: 57.6 °F 41.2 °F 50.1 °F
Humidity: 76% 48% 62%
Wind Speed: 4.9mph 0.0mph 0.2mph
Wind Gust: 8.0mph - -
Wind- - ESE
Pressure: 30.06 in 29.70 in -
Precipitation: 0.17 in    
Historical Graphs
 
 
Tabular Data for November 1, 2018
Time Temperature Dew Point Pressure Wind Wind Speed Wind Gust Humidity Rainfall Rate (Hourly) solar
00:04 63.7 °F 55.6 °F 30.06 in Calm   1.0 mph 75% 0.00 in meteobridge W/m2
00:09 64.2 °F 56.1 °F 30.06 in Calm     75% 0.00 in meteobridge W/m2
00:14 64.6 °F 56.5 °F 30.06 in Calm     75% 0.00 in meteobridge W/m2
00:19 64.9 °F 56.8 °F 30.06 in Calm     75% 0.00 in meteobridge W/m2
00:24 65.1 °F 57.0 °F 30.06 in Calm   1.0 mph 75% 0.00 in meteobridge W/m2
00:29 65.5 °F 57.4 °F 30.06 in Calm   1.0 mph 75% 0.00 in meteobridge W/m2
00:33 65.5 °F 57.4 °F 30.06 in Calm     75% 0.00 in meteobridge W/m2
00:39 65.7 °F 57.6 °F 30.05 in Calm   1.0 mph 75% 0.00 in meteobridge W/m2
00:44 65.7 °F 57.2 °F 30.04 in Calm   2.0 mph 74% 0.00 in meteobridge W/m2
00:49 65.8 °F 57.4 °F 30.04 in Calm   2.0 mph 74% 0.00 in meteobridge W/m2
00:54 65.8 °F 57.4 °F 30.04 in Calm   2.0 mph 74% 0.00 in meteobridge W/m2
00:59 65.8 °F 57.4 °F 30.04 in ESE 0.9 mph 4.0 mph 74% 0.00 in meteobridge W/m2
01:03 66.0 °F 57.6 °F 30.04 in Calm     74% 0.00 in meteobridge W/m2
01:09 66.0 °F 57.6 °F 30.04 in Calm   1.0 mph 74% 0.00 in meteobridge W/m2
01:14 66.0 °F 57.2 °F 30.04 in Calm   4.0 mph 73% 0.00 in meteobridge W/m2
01:18 66.2 °F 57.2 °F 30.03 in Calm   1.0 mph 73% 0.00 in meteobridge W/m2
01:24 66.0 °F 56.7 °F 30.03 in Calm   1.0 mph 72% 0.00 in meteobridge W/m2
01:29 66.0 °F 56.7 °F 30.03 in Calm   2.0 mph 72% 0.00 in meteobridge W/m2
01:34 66.4 °F 56.3 °F 30.03 in Calm   8.0 mph 70% 0.00 in meteobridge W/m2
01:39 66.7 °F 56.3 °F 30.03 in Calm   1.0 mph 69% 0.00 in meteobridge W/m2
01:44 66.9 °F 56.5 °F 30.03 in Calm   2.0 mph 69% 0.00 in meteobridge W/m2
01:49 66.9 °F 56.5 °F 30.03 in ESE 0.9 mph 4.0 mph 69% 0.00 in meteobridge W/m2
01:54 66.9 °F 56.5 °F 30.02 in Calm   1.0 mph 69% 0.00 in meteobridge W/m2
01:59 66.7 °F 56.3 °F 30.02 in Calm   2.0 mph 69% 0.00 in meteobridge W/m2
02:04 66.7 °F 56.3 °F 30.02 in Calm   2.0 mph 69% 0.00 in meteobridge W/m2
02:09 66.7 °F 56.3 °F 30.01 in ESE 2.0 mph 2.0 mph 69% 0.00 in meteobridge W/m2
02:14 66.9 °F 56.5 °F 30.01 in SE 0.9 mph 5.0 mph 69% 0.00 in meteobridge W/m2
02:16 66.9 °F 56.8 °F 30.01 in Calm     70% 0.00 in meteobridge W/m2
02:24 66.7 °F 56.7 °F 30.01 in Calm   4.0 mph 70% 0.00 in meteobridge W/m2
02:29 66.7 °F 56.7 °F 30.01 in Calm   1.0 mph 70% 0.00 in meteobridge W/m2
02:32 66.6 °F 56.5 °F 30.01 in ESE 0.9 mph 4.0 mph 70% 0.00 in meteobridge W/m2
02:39 66.6 °F 56.5 °F 30.01 in ESE 2.0 mph 5.0 mph 70% 0.00 in meteobridge W/m2
02:44 66.6 °F 56.1 °F 30.01 in Calm     69% 0.00 in meteobridge W/m2
02:49 66.7 °F 56.3 °F 30.01 in Calm   1.0 mph 69% 0.00 in meteobridge W/m2
02:54 66.6 °F 56.1 °F 30.01 in Calm   2.0 mph 69% 0.00 in meteobridge W/m2
02:59 66.4 °F 55.9 °F 30.01 in ESE 0.9 mph 3.0 mph 69% 0.00 in meteobridge W/m2
03:02 66.4 °F 56.3 °F 30.00 in Calm   1.0 mph 70% 0.00 in meteobridge W/m2
03:09 66.0 °F 55.9 °F 29.99 in Calm   1.0 mph 70% 0.00 in meteobridge W/m2
03:14 66.0 °F 55.9 °F 29.99 in Calm   4.0 mph 70% 0.00 in meteobridge W/m2
03:19 65.8 °F 56.1 °F 29.99 in Calm   5.0 mph 71% 0.00 in meteobridge W/m2
03:24 65.8 °F 56.5 °F 29.99 in Calm   1.0 mph 72% 0.00 in meteobridge W/m2
03:29 65.8 °F 56.5 °F 29.99 in Calm     72% 0.00 in meteobridge W/m2
03:34 65.7 °F 56.3 °F 29.98 in Calm   1.0 mph 72% 0.00 in meteobridge W/m2
03:39 65.7 °F 56.8 °F 29.98 in Calm   4.0 mph 73% 0.00 in meteobridge W/m2
03:44 65.5 °F 56.7 °F 29.98 in Calm   1.0 mph 73% 0.00 in meteobridge W/m2
03:49 65.3 °F 56.8 °F 29.98 in Calm   1.0 mph 74% 0.00 in meteobridge W/m2
03:54 65.1 °F 56.7 °F 29.98 in Calm     74% 0.00 in meteobridge W/m2
03:58 65.1 °F 56.7 °F 29.97 in ESE 0.9 mph 4.0 mph 74% 0.00 in meteobridge W/m2
04:04 65.1 °F 56.7 °F 29.97 in Calm     74% 0.00 in meteobridge W/m2
04:09 64.9 °F 56.5 °F 29.97 in Calm   4.0 mph 74% 0.00 in meteobridge W/m2
04:14 64.9 °F 56.5 °F 29.96 in Calm     74% 0.00 in meteobridge W/m2
04:18 64.9 °F 56.5 °F 29.96 in Calm   1.0 mph 74% 0.00 in meteobridge W/m2
04:23 64.9 °F 56.5 °F 29.96 in Calm   1.0 mph 74% 0.00 in meteobridge W/m2
04:29 64.8 °F 56.3 °F 29.95 in Calm   4.0 mph 74% 0.00 in meteobridge W/m2
04:34 64.8 °F 56.7 °F 29.95 in Calm     75% 0.00 in meteobridge W/m2
04:39 64.6 °F 56.1 °F 29.95 in Calm   5.0 mph 74% 0.00 in meteobridge W/m2
04:44 64.6 °F 56.1 °F 29.95 in Calm     74% 0.00 in meteobridge W/m2
04:48 64.4 °F 55.9 °F 29.95 in Calm     74% 0.00 in meteobridge W/m2
04:53 64.0 °F 55.6 °F 29.95 in Calm     74% 0.00 in meteobridge W/m2
04:55 64.0 °F 55.9 °F 29.95 in Calm     75% 0.00 in meteobridge W/m2
05:04 63.7 °F 55.6 °F 29.94 in ESE 2.0 mph 4.0 mph 75% 0.00 in meteobridge W/m2
05:09 63.7 °F 55.2 °F 29.94 in Calm   1.0 mph 74% 0.00 in meteobridge W/m2
05:13 63.7 °F 55.2 °F 29.94 in Calm   1.0 mph 74% 0.00 in meteobridge W/m2
05:19 63.7 °F 55.2 °F 29.94 in ESE 2.0 mph 4.0 mph 74% 0.00 in meteobridge W/m2
05:22 63.7 °F 55.6 °F 29.94 in Calm     75% 0.00 in meteobridge W/m2
05:28 63.7 °F 55.6 °F 29.94 in Calm   1.0 mph 75% 0.00 in meteobridge W/m2
05:34 63.5 °F 55.4 °F 29.93 in Calm     75% 0.00 in meteobridge W/m2
05:37 63.3 °F 55.2 °F 29.94 in Calm   3.0 mph 75% 0.00 in meteobridge W/m2
05:44 62.6 °F 54.5 °F 29.95 in Calm     75% 0.00 in meteobridge W/m2
05:49 61.9 °F 54.3 °F 29.94 in Calm   1.0 mph 76% 0.00 in meteobridge W/m2
05:54 61.5 °F 53.6 °F 29.94 in Calm     75% 0.00 in meteobridge W/m2
05:59 61.5 °F 53.6 °F 29.93 in Calm   1.0 mph 75% 0.00 in meteobridge W/m2
06:04 61.9 °F 53.4 °F 29.93 in Calm   4.0 mph 74% 0.00 in meteobridge W/m2
06:09 62.6 °F 54.1 °F 29.93 in Calm   4.0 mph 74% 0.00 in meteobridge W/m2
06:12 62.8 °F 54.3 °F 29.93 in SE 2.0 mph 4.0 mph 74% 0.00 in meteobridge W/m2
06:19 63.1 °F 54.7 °F 29.93 in Calm   4.0 mph 74% 0.00 in meteobridge W/m2
06:24 63.3 °F 54.9 °F 29.92 in Calm   1.0 mph 74% 0.00 in meteobridge W/m2
06:29 63.3 °F 54.9 °F 29.93 in East 2.0 mph 2.0 mph 74% 0.00 in meteobridge W/m2
06:34 63.1 °F 54.3 °F 29.93 in Calm     73% 0.00 in meteobridge W/m2
06:39 63.0 °F 54.1 °F 29.93 in Calm   1.0 mph 73% 0.00 in meteobridge W/m2
06:44 63.0 °F 53.8 °F 29.93 in Calm   2.0 mph 72% 0.00 in meteobridge W/m2
06:49 63.0 °F 53.8 °F 29.92 in Calm   2.0 mph 72% 0.00 in meteobridge W/m2
06:54 63.0 °F 53.4 °F 29.92 in ESE 4.0 mph 5.0 mph 71% 0.00 in meteobridge W/m2
06:59 63.0 °F 53.1 °F 29.92 in Calm   1.0 mph 70% 0.00 in meteobridge W/m2
07:01 63.0 °F 53.1 °F 29.91 in SE 4.0 mph 5.0 mph 70% 0.00 in meteobridge W/m2
07:09 63.1 °F 53.2 °F 29.91 in Calm   1.0 mph 70% 0.00 in meteobridge W/m2
07:14 63.3 °F 53.4 °F 29.91 in Calm   4.0 mph 70% 0.00 in meteobridge W/m2
07:19 63.3 °F 53.4 °F 29.91 in Calm   4.0 mph 70% 0.00 in meteobridge W/m2
07:23 63.3 °F 53.4 °F 29.91 in Calm   1.0 mph 70% 0.00 in meteobridge W/m2
07:28 63.3 °F 53.4 °F 29.91 in Calm   4.0 mph 70% 0.00 in meteobridge W/m2
07:34 63.3 °F 53.4 °F 29.90 in Calm   1.0 mph 70% 0.00 in meteobridge W/m2
07:39 63.3 °F 53.4 °F 29.91 in Calm     70% 0.00 in meteobridge W/m2
07:44 63.5 °F 53.6 °F 29.91 in Calm     70% 0.00 in meteobridge W/m2
07:49 63.7 °F 54.1 °F 29.91 in Calm   2.0 mph 71% 0.00 in meteobridge W/m2
07:54 63.7 °F 54.1 °F 29.91 in Calm   2.0 mph 71% 0.00 in meteobridge W/m2
07:58 63.7 °F 54.1 °F 29.91 in ENE 2.9 mph 3.0 mph 71% 0.00 in meteobridge W/m2
08:04 63.5 °F 54.0 °F 29.91 in Calm     71% 0.00 in meteobridge W/m2
08:09 63.3 °F 53.4 °F 29.91 in East 2.0 mph 4.0 mph 70% 0.00 in meteobridge W/m2
08:14 63.3 °F 53.4 °F 29.91 in East 0.9 mph 4.0 mph 70% 0.00 in meteobridge W/m2
08:19 63.3 °F 53.4 °F 29.91 in ESE 0.9 mph 2.0 mph 70% 0.00 in meteobridge W/m2
08:24 63.3 °F 53.4 °F 29.91 in Calm   4.0 mph 70% 0.00 in meteobridge W/m2
08:28 63.3 °F 53.4 °F 29.91 in ESE 0.9 mph 1.0 mph 70% 0.00 in meteobridge W/m2
08:33 63.3 °F 53.4 °F 29.91 in Calm   2.0 mph 70% 0.00 in meteobridge W/m2
08:39 63.3 °F 53.1 °F 29.91 in Calm   1.0 mph 69% 0.00 in meteobridge W/m2
08:44 63.1 °F 52.9 °F 29.91 in ESE 0.9 mph 5.0 mph 69% 0.00 in meteobridge W/m2
08:49 63.1 °F 52.9 °F 29.91 in East 4.0 mph 5.0 mph 69% 0.00 in meteobridge W/m2
08:53 63.3 °F 53.1 °F 29.91 in Calm   4.0 mph 69% 0.00 in meteobridge W/m2
08:58 63.3 °F 53.1 °F 29.90 in Calm   1.0 mph 69% 0.00 in meteobridge W/m2
09:04 63.7 °F 53.2 °F 29.90 in ENE 0.9 mph 4.0 mph 69% 0.00 in meteobridge W/m2
09:09 63.7 °F 52.9 °F 29.90 in East 0.9 mph 6.0 mph 68% 0.00 in meteobridge W/m2
09:13 63.9 °F 53.1 °F 29.91 in Calm   1.0 mph 68% 0.00 in meteobridge W/m2
09:19 64.0 °F 53.2 °F 29.90 in Calm   2.0 mph 68% 0.00 in meteobridge W/m2
09:24 64.0 °F 53.6 °F 29.90 in Calm   2.0 mph 69% 0.00 in meteobridge W/m2
09:29 64.2 °F 53.8 °F 29.90 in SE 4.0 mph 6.0 mph 69% 0.00 in meteobridge W/m2
09:32 64.2 °F 53.4 °F 29.90 in Calm   4.0 mph 68% 0.00 in meteobridge W/m2
09:39 64.6 °F 53.8 °F 29.90 in ESE 0.9 mph 2.0 mph 68% 0.00 in meteobridge W/m2
09:43 64.6 °F 53.8 °F 29.90 in East 4.9 mph 5.0 mph 68% 0.00 in meteobridge W/m2
09:49 64.6 °F 53.8 °F 29.89 in Calm   1.0 mph 68% 0.00 in meteobridge W/m2
09:54 64.6 °F 53.8 °F 29.90 in Calm   6.0 mph 68% 0.00 in meteobridge W/m2
09:59 64.6 °F 53.8 °F 29.89 in ESE 2.0 mph 4.0 mph 68% 0.00 in meteobridge W/m2
10:04 64.6 °F 53.4 °F 29.89 in SE 4.0 mph 5.0 mph 67% 0.00 in meteobridge W/m2
10:08 64.8 °F 53.6 °F 29.89 in Calm   5.0 mph 67% 0.00 in meteobridge W/m2
10:13 64.8 °F 53.6 °F 29.89 in ESE 0.9 mph 5.0 mph 67% 0.00 in meteobridge W/m2
10:19 64.8 °F 53.6 °F 29.89 in Calm     67% 0.00 in meteobridge W/m2
10:24 64.6 °F 53.4 °F 29.89 in Calm     67% 0.00 in meteobridge W/m2
10:29 64.6 °F 53.4 °F 29.88 in Calm     67% 0.00 in meteobridge W/m2
10:34 64.6 °F 53.4 °F 29.88 in Calm     67% 0.00 in meteobridge W/m2
10:39 64.6 °F 52.9 °F 29.88 in Calm     66% 0.00 in meteobridge W/m2
10:43 64.4 °F 52.9 °F 29.88 in Calm     66% 0.00 in meteobridge W/m2
10:49 64.6 °F 52.9 °F 29.87 in Calm     66% 0.00 in meteobridge W/m2
10:54 64.6 °F 52.9 °F 29.87 in Calm     66% 0.00 in meteobridge W/m2
10:59 64.8 °F 53.6 °F 29.86 in Calm     67% 0.00 in meteobridge W/m2
11:04 64.8 °F 53.6 °F 29.86 in Calm     67% 0.00 in meteobridge W/m2
11:09 64.9 °F 54.1 °F 29.86 in Calm     68% 0.00 in meteobridge W/m2
11:14 64.9 °F 54.1 °F 29.87 in Calm     68% 0.00 in meteobridge W/m2
11:19 64.9 °F 54.1 °F 29.86 in Calm     68% 0.00 in meteobridge W/m2
11:23 65.1 °F 54.3 °F 29.86 in Calm     68% 0.00 in meteobridge W/m2
11:29 65.1 °F 54.7 °F 29.85 in Calm     69% 0.00 in meteobridge W/m2
11:34 65.1 °F 54.7 °F 29.86 in Calm     69% 0.00 in meteobridge W/m2
11:39 65.1 °F 54.7 °F 29.86 in Calm     69% 0.00 in meteobridge W/m2
11:44 65.3 °F 54.9 °F 29.86 in Calm     69% 0.00 in meteobridge W/m2
11:49 65.3 °F 54.9 °F 29.87 in Calm     69% 0.00 in meteobridge W/m2
11:53 65.3 °F 54.9 °F 29.87 in Calm     69% 0.00 in meteobridge W/m2
11:57 65.3 °F 54.9 °F 29.87 in Calm     69% 0.00 in meteobridge W/m2
12:04 65.1 °F 54.7 °F 29.87 in Calm     69% 0.00 in meteobridge W/m2
12:08 65.1 °F 54.3 °F 29.86 in Calm     68% 0.00 in meteobridge W/m2
12:14 65.1 °F 54.3 °F 29.86 in Calm     68% 0.00 in meteobridge W/m2
12:18 65.1 °F 54.7 °F 29.85 in Calm     69% 0.00 in meteobridge W/m2
12:24 65.1 °F 54.7 °F 29.85 in Calm     69% 0.00 in meteobridge W/m2
12:29 65.5 °F 55.0 °F 29.84 in Calm     69% 0.00 in meteobridge W/m2
12:34 65.5 °F 55.0 °F 29.84 in Calm     69% 0.00 in meteobridge W/m2
12:38 65.5 °F 55.0 °F 29.84 in Calm     69% 0.00 in meteobridge W/m2
12:44 65.7 °F 55.2 °F 29.84 in Calm     69% 0.00 in meteobridge W/m2
12:48 65.7 °F 55.2 °F 29.83 in Calm     69% 0.00 in meteobridge W/m2
12:54 65.7 °F 55.2 °F 29.82 in Calm     69% 0.00 in meteobridge W/m2
12:57 65.7 °F 55.2 °F 29.82 in Calm     69% 0.00 in meteobridge W/m2
13:04 65.7 °F 54.9 °F 29.81 in Calm     68% 0.00 in meteobridge W/m2
13:08 65.7 °F 54.0 °F 29.81 in Calm     66% 0.01 in meteobridge W/m2
13:13 65.1 °F 52.2 °F 29.82 in Calm     63% 0.01 in meteobridge W/m2
13:19 64.8 °F 51.1 °F 29.80 in Calm     61% 0.01 in meteobridge W/m2
13:24 64.4 °F 50.2 °F 29.80 in Calm     60% 0.02 in meteobridge W/m2
13:29 64.2 °F 49.1 °F 29.80 in Calm     58% 0.02 in meteobridge W/m2
13:34 64.2 °F 48.7 °F 29.80 in Calm     57% 0.02 in meteobridge W/m2
13:38 64.2 °F 48.7 °F 29.79 in Calm     57% 0.02 in meteobridge W/m2
13:43 64.2 °F 48.7 °F 29.80 in Calm     57% 0.02 in meteobridge W/m2
13:49 64.4 °F 49.3 °F 29.78 in Calm     58% 0.02 in meteobridge W/m2
13:54 64.6 °F 49.5 °F 29.78 in Calm     58% 0.02 in meteobridge W/m2
13:59 64.8 °F 50.2 °F 29.77 in Calm     59% 0.02 in meteobridge W/m2
14:03 64.8 °F 50.5 °F 29.77 in Calm     60% 0.02 in meteobridge W/m2
14:09 64.9 °F 51.1 °F 29.77 in Calm     61% 0.01 in meteobridge W/m2
14:14 65.1 °F 51.3 °F 29.76 in Calm     61% 0.01 in meteobridge W/m2
14:18 65.1 °F 51.3 °F 29.77 in Calm     61% 0.01 in meteobridge W/m2
14:23 65.3 °F 51.1 °F 29.77 in Calm     60% 0.01 in meteobridge W/m2
14:29 65.1 °F 50.4 °F 29.77 in Calm     59% 0.01 in meteobridge W/m2
14:33 65.1 °F 50.4 °F 29.77 in Calm     59% 0.01 in meteobridge W/m2
14:39 65.1 °F 50.0 °F 29.77 in Calm     58% 0.01 in meteobridge W/m2
14:42 65.1 °F 50.0 °F 29.78 in Calm     58% 0.01 in meteobridge W/m2
14:49 65.1 °F 50.0 °F 29.78 in Calm     58% 0.01 in meteobridge W/m2
14:53 65.1 °F 50.0 °F 29.78 in Calm     58% 0.01 in meteobridge W/m2
14:59 65.1 °F 49.1 °F 29.79 in Calm     56% 0.02 in meteobridge W/m2
15:04 65.1 °F 49.1 °F 29.78 in Calm     56% 0.03 in meteobridge W/m2
15:09 64.9 °F 48.4 °F 29.78 in Calm     55% 0.03 in meteobridge W/m2
15:14 64.9 °F 47.8 °F 29.78 in Calm     54% 0.04 in meteobridge W/m2
15:19 64.8 °F 47.7 °F 29.78 in Calm     54% 0.05 in meteobridge W/m2
15:24 64.6 °F 47.1 °F 29.78 in Calm     53% 0.07 in meteobridge W/m2
15:29 64.6 °F 47.1 °F 29.77 in Calm     53% 0.07 in meteobridge W/m2
15:34 64.4 °F 46.4 °F 29.77 in Calm     52% 0.08 in meteobridge W/m2
15:39 64.2 °F 46.2 °F 29.76 in Calm     52% 0.08 in meteobridge W/m2
15:44 64.2 °F 46.2 °F 29.76 in Calm     52% 0.09 in meteobridge W/m2
15:48 64.0 °F 46.0 °F 29.74 in Calm     52% 0.10 in meteobridge W/m2
15:54 63.9 °F 45.9 °F 29.74 in Calm     52% 0.10 in meteobridge W/m2
15:59 63.7 °F 45.7 °F 29.73 in Calm     52% 0.10 in meteobridge W/m2
16:04 63.5 °F 45.5 °F 29.73 in Calm     52% 0.09 in meteobridge W/m2
16:09 63.3 °F 45.3 °F 29.72 in Calm     52% 0.10 in meteobridge W/m2
16:13 63.1 °F 44.8 °F 29.71 in Calm     51% 0.09 in meteobridge W/m2
16:18 63.1 °F 44.8 °F 29.70 in Calm     51% 0.09 in meteobridge W/m2
16:24 63.0 °F 44.6 °F 29.70 in Calm     51% 0.07 in meteobridge W/m2
16:29 63.0 °F 44.6 °F 29.70 in Calm     51% 0.06 in meteobridge W/m2
16:34 63.0 °F 44.6 °F 29.70 in Calm     51% 0.05 in meteobridge W/m2
16:39 62.8 °F 44.4 °F 29.71 in Calm     51% 0.04 in meteobridge W/m2
16:44 62.8 °F 43.9 °F 29.72 in Calm     50% 0.04 in meteobridge W/m2
16:49 63.0 °F 44.1 °F 29.72 in Calm     50% 0.03 in meteobridge W/m2
16:54 63.1 °F 44.2 °F 29.72 in Calm     50% 0.03 in meteobridge W/m2
16:59 63.1 °F 43.7 °F 29.72 in Calm     49% 0.02 in meteobridge W/m2
17:04 63.1 °F 44.2 °F 29.71 in Calm     50% 0.02 in meteobridge W/m2
17:08 63.1 °F 44.2 °F 29.71 in Calm     50% 0.01 in meteobridge W/m2
17:14 63.1 °F 43.7 °F 29.71 in Calm     49% 0.00 in meteobridge W/m2
17:19 63.1 °F 43.7 °F 29.73 in Calm     49% 0.00 in meteobridge W/m2
17:24 63.1 °F 43.7 °F 29.73 in Calm     49% 0.00 in meteobridge W/m2
17:28 63.3 °F 43.9 °F 29.73 in Calm     49% 0.00 in meteobridge W/m2
17:34 63.3 °F 43.9 °F 29.73 in Calm     49% 0.00 in meteobridge W/m2
17:39 63.3 °F 43.9 °F 29.75 in Calm     49% 0.00 in meteobridge W/m2
17:44 63.3 °F 43.9 °F 29.75 in Calm     49% 0.00 in meteobridge W/m2
17:49 63.3 °F 43.9 °F 29.74 in Calm     49% 0.00 in meteobridge W/m2
17:54 63.3 °F 43.9 °F 29.75 in Calm     49% 0.00 in meteobridge W/m2
17:59 63.1 °F 43.7 °F 29.76 in Calm     49% 0.00 in meteobridge W/m2
18:04 63.0 °F 43.5 °F 29.76 in Calm     49% 0.00 in meteobridge W/m2
18:09 62.8 °F 43.3 °F 29.76 in Calm     49% 0.00 in meteobridge W/m2
18:14 62.8 °F 43.3 °F 29.77 in Calm     49% 0.00 in meteobridge W/m2
18:18 62.6 °F 43.2 °F 29.77 in Calm     49% 0.00 in meteobridge W/m2
18:24 62.6 °F 43.2 °F 29.77 in Calm     49% 0.00 in meteobridge W/m2
18:28 62.4 °F 43.0 °F 29.77 in Calm     49% 0.00 in meteobridge W/m2
18:33 62.2 °F 42.8 °F 29.78 in Calm     49% 0.00 in meteobridge W/m2
18:39 62.2 °F 42.8 °F 29.79 in Calm     49% 0.00 in meteobridge W/m2
18:44 62.1 °F 43.2 °F 29.77 in Calm     50% 0.00 in meteobridge W/m2
18:49 62.1 °F 43.2 °F 29.77 in Calm     50% 0.00 in meteobridge W/m2
18:54 61.9 °F 43.0 °F 29.78 in Calm     50% 0.00 in meteobridge W/m2
18:58 61.9 °F 43.0 °F 29.78 in Calm     50% 0.00 in meteobridge W/m2
19:04 61.5 °F 42.6 °F 29.79 in Calm     50% 0.00 in meteobridge W/m2
19:07 61.5 °F 42.6 °F 29.78 in Calm     50% 0.00 in meteobridge W/m2
19:13 61.3 °F 42.6 °F 29.78 in Calm     50% 0.00 in meteobridge W/m2
19:19 61.3 °F 42.6 °F 29.79 in Calm     50% 0.00 in meteobridge W/m2
19:24 61.2 °F 42.4 °F 29.80 in Calm     50% 0.00 in meteobridge W/m2
19:29 61.2 °F 42.4 °F 29.80 in Calm     50% 0.00 in meteobridge W/m2
19:34 61.2 °F 42.4 °F 29.80 in Calm     50% 0.00 in meteobridge W/m2
19:39 61.2 °F 42.4 °F 29.80 in Calm     50% 0.00 in meteobridge W/m2
19:42 61.2 °F 42.4 °F 29.79 in Calm     50% 0.00 in meteobridge W/m2
19:48 61.2 °F 42.4 °F 29.80 in Calm     50% 0.00 in meteobridge W/m2
19:54 61.0 °F 42.3 °F 29.79 in Calm     50% 0.00 in meteobridge W/m2
19:59 61.0 °F 42.3 °F 29.80 in Calm     50% 0.00 in meteobridge W/m2
20:04 61.0 °F 42.3 °F 29.80 in Calm     50% 0.00 in meteobridge W/m2
20:08 61.0 °F 42.3 °F 29.80 in Calm     50% 0.00 in meteobridge W/m2
20:14 60.8 °F 42.1 °F 29.80 in Calm     50% 0.00 in meteobridge W/m2
20:17 60.8 °F 42.1 °F 29.80 in Calm     50% 0.01 in meteobridge W/m2
20:23 60.8 °F 42.1 °F 29.81 in Calm     50% 0.01 in meteobridge W/m2
20:28 60.8 °F 42.1 °F 29.81 in Calm     50% 0.01 in meteobridge W/m2
20:34 60.8 °F 41.5 °F 29.81 in Calm     49% 0.01 in meteobridge W/m2
20:39 60.8 °F 41.5 °F 29.81 in Calm     49% 0.01 in meteobridge W/m2
20:44 60.8 °F 41.5 °F 29.80 in Calm     49% 0.01 in meteobridge W/m2
20:48 60.6 °F 41.4 °F 29.81 in Calm     49% 0.01 in meteobridge W/m2
20:54 60.6 °F 41.4 °F 29.81 in Calm     49% 0.01 in meteobridge W/m2
20:58 60.6 °F 41.4 °F 29.80 in Calm     49% 0.01 in meteobridge W/m2
21:04 60.6 °F 41.4 °F 29.80 in Calm     49% 0.01 in meteobridge W/m2
21:09 60.6 °F 41.4 °F 29.80 in Calm     49% 0.01 in meteobridge W/m2
21:14 60.6 °F 41.4 °F 29.80 in Calm     49% 0.01 in meteobridge W/m2
21:19 60.6 °F 41.4 °F 29.80 in Calm     49% 0.00 in meteobridge W/m2
21:24 60.6 °F 41.4 °F 29.81 in Calm     49% 0.00 in meteobridge W/m2
21:29 60.6 °F 41.4 °F 29.80 in Calm     49% 0.00 in meteobridge W/m2
21:33 60.6 °F 41.4 °F 29.81 in Calm     49% 0.00 in meteobridge W/m2
21:38 60.6 °F 41.4 °F 29.81 in Calm     49% 0.00 in meteobridge W/m2
21:43 60.6 °F 41.4 °F 29.82 in Calm     49% 0.00 in meteobridge W/m2
21:48 60.6 °F 41.4 °F 29.81 in Calm     49% 0.00 in meteobridge W/m2
21:54 60.6 °F 41.4 °F 29.81 in Calm     49% 0.00 in meteobridge W/m2
21:59 60.6 °F 41.4 °F 29.81 in Calm     49% 0.00 in meteobridge W/m2
22:04 60.6 °F 41.4 °F 29.81 in Calm     49% 0.00 in meteobridge W/m2
22:08 60.4 °F 41.2 °F 29.81 in Calm     49% 0.00 in meteobridge W/m2
22:12 60.4 °F 41.2 °F 29.82 in Calm     49% 0.00 in meteobridge W/m2
22:19 60.4 °F 41.2 °F 29.81 in Calm     49% 0.00 in meteobridge W/m2
22:24 60.4 °F 41.2 °F 29.82 in Calm     49% 0.00 in meteobridge W/m2
22:29 60.4 °F 41.2 °F 29.81 in Calm     49% 0.00 in meteobridge W/m2
22:34 60.4 °F 41.2 °F 29.82 in Calm     49% 0.00 in meteobridge W/m2
22:39 60.4 °F 41.2 °F 29.81 in Calm     49% 0.00 in meteobridge W/m2
22:44 60.6 °F 41.4 °F 29.82 in Calm     49% 0.00 in meteobridge W/m2
22:49 60.6 °F 41.4 °F 29.81 in Calm     49% 0.00 in meteobridge W/m2
22:53 60.6 °F 41.4 °F 29.81 in Calm     49% 0.00 in meteobridge W/m2
22:59 60.6 °F 41.4 °F 29.81 in Calm     49% 0.00 in meteobridge W/m2
23:03 60.6 °F 41.4 °F 29.81 in Calm     49% 0.00 in meteobridge W/m2
23:09 60.8 °F 41.5 °F 29.82 in Calm     49% 0.00 in meteobridge W/m2
23:14 60.8 °F 41.5 °F 29.80 in Calm     49% 0.00 in meteobridge W/m2
23:17 60.8 °F 41.5 °F 29.81 in Calm     49% 0.00 in meteobridge W/m2
23:24 60.8 °F 41.5 °F 29.81 in Calm     49% 0.00 in meteobridge W/m2
23:29 60.8 °F 41.5 °F 29.80 in Calm     49% 0.00 in meteobridge W/m2
23:34 61.0 °F 41.7 °F 29.81 in Calm     49% 0.00 in meteobridge W/m2
23:39 60.8 °F 41.5 °F 29.81 in Calm     49% 0.00 in meteobridge W/m2
23:41 60.8 °F 41.5 °F 29.81 in Calm     49% 0.00 in meteobridge W/m2
23:49 61.0 °F 41.2 °F 29.80 in Calm     48% 0.00 in meteobridge W/m2
23:53 61.0 °F 41.2 °F 29.80 in Calm     48% 0.00 in meteobridge W/m2
23:59 61.0 °F 41.2 °F 29.80 in Calm     48% 0.00 in meteobridge W/m2
EllijayWeather
Compliments of Weather Underground - 2.5 mb